createdAt,value
2019-05-13T00:01:07.246Z,65.29
2019-05-13T00:03:56.173Z,64.83
2019-05-13T00:06:54.059Z,65.62
2019-05-13T00:09:35.813Z,65.88
2019-05-13T00:12:24.592Z,66.52
2019-05-13T00:15:14.065Z,67.20
2019-05-13T00:18:04.271Z,67.49
2019-05-13T00:20:54.216Z,67.17
2019-05-13T00:27:14.030Z,67.09
2019-05-13T00:30:04.276Z,67.82
2019-05-13T00:32:54.577Z,68.05
2019-05-13T00:35:44.404Z,67.75
2019-05-13T00:38:34.311Z,68.28
2019-05-13T00:41:24.486Z,69.05
2019-05-13T00:44:14.284Z,69.61
2019-05-13T00:47:04.576Z,70.15
2019-05-13T00:49:54.679Z,70.02
2019-05-13T00:52:44.913Z,69.69
2019-05-13T00:55:34.692Z,69.57
2019-05-13T00:58:24.864Z,70.01
2019-05-13T01:01:06.441Z,70.57
2019-05-13T01:03:55.322Z,71.17
2019-05-13T01:06:44.106Z,70.93
2019-05-13T01:09:34.249Z,72.09
2019-05-13T01:12:23.846Z,72.11
2019-05-13T01:15:34.846Z,71.92
2019-05-13T01:18:23.609Z,72.47
2019-05-13T01:21:13.314Z,71.76
2019-05-13T01:24:03.776Z,71.29
2019-05-13T01:26:54.171Z,71.25
2019-05-13T01:29:44.058Z,71.37
2019-05-13T01:32:34.282Z,71.82
2019-05-13T01:35:23.730Z,72.65
2019-05-13T01:38:13.862Z,72.27
2019-05-13T01:41:04.418Z,72.49
2019-05-13T01:43:54.422Z,72.07
2019-05-13T01:46:43.925Z,72.69
2019-05-13T01:49:33.628Z,72.23
2019-05-13T01:52:23.779Z,72.14
2019-05-13T01:55:14.662Z,72.17
2019-05-13T01:58:04.965Z,72.79
2019-05-13T02:00:55.189Z,72.59
2019-05-13T02:03:44.447Z,72.11
2019-05-13T02:06:33.843Z,71.98
2019-05-13T02:12:34.038Z,71.07
2019-05-13T02:15:23.687Z,72.13
2019-05-13T02:18:13.448Z,71.71
2019-05-13T02:21:05.335Z,71.52
2019-05-13T02:23:53.762Z,71.49
2019-05-13T02:26:44.048Z,72.17
2019-05-13T02:29:34.397Z,72.33
2019-05-13T02:32:43.083Z,72.41
2019-05-13T02:35:33.233Z,72.41
2019-05-13T02:38:28.716Z,72.25
2019-05-13T02:41:13.763Z,72.17
2019-05-13T02:44:04.359Z,72.14
2019-05-13T02:46:53.115Z,72.42
2019-05-13T02:49:42.994Z,72.89
2019-05-13T02:52:33.425Z,72.96
2019-05-13T02:55:22.994Z,73.11
2019-05-13T02:58:12.613Z,73.11
2019-05-13T03:01:03.357Z,72.90
2019-05-13T03:03:53.219Z,72.42
2019-05-13T03:06:43.513Z,72.49
2019-05-13T03:09:32.818Z,72.71
2019-05-13T03:12:23.328Z,73.46
2019-05-13T03:15:13.860Z,74.08
2019-05-13T03:18:22.746Z,74.78
2019-05-13T03:21:13.049Z,74.46
2019-05-13T03:24:03.732Z,74.46
2019-05-13T03:26:53.641Z,74.30
2019-05-13T03:29:43.866Z,74.47
2019-05-13T03:32:42.911Z,74.03
2019-05-13T03:35:26.470Z,74.04
2019-05-13T03:38:14.029Z,74.04
2019-05-13T03:41:03.441Z,74.38
2019-05-13T03:44:14.515Z,74.38
2019-05-13T03:50:03.054Z,74.44
2019-05-13T03:52:52.524Z,74.12
2019-05-13T03:55:43.395Z,73.81
2019-05-13T03:58:32.557Z,74.22
2019-05-13T04:01:13.875Z,74.19
2019-05-13T04:04:03.386Z,73.87
2019-05-13T04:06:53.316Z,73.92
2019-05-13T04:09:43.645Z,73.50
2019-05-13T04:12:33.482Z,74.01
2019-05-13T04:18:17.600Z,73.54
2019-05-13T04:21:06.410Z,73.91
2019-05-13T04:23:55.279Z,73.54
2019-05-13T04:26:44.084Z,73.43
2019-05-13T04:29:33.576Z,73.64
2019-05-13T04:32:28.244Z,73.16
2019-05-13T04:35:13.988Z,73.15
2019-05-13T04:38:05.268Z,73.28
2019-05-13T04:40:53.645Z,73.09
2019-05-13T04:43:43.845Z,72.83
2019-05-13T04:46:33.055Z,72.74
2019-05-13T04:49:23.440Z,72.60
2019-05-13T04:52:13.402Z,71.96
2019-05-13T04:57:58.234Z,71.93
2019-05-13T05:01:07.566Z,71.63
2019-05-13T05:04:22.640Z,71.38
2019-05-13T05:07:22.539Z,70.84
2019-05-13T05:10:53.698Z,71.19
2019-05-13T05:14:19.214Z,71.03
2019-05-13T05:17:46.708Z,70.89
2019-05-13T05:21:14.204Z,70.69
2019-05-13T05:24:23.918Z,70.65
2019-05-13T05:27:51.587Z,70.53
2019-05-13T05:31:19.310Z,70.32
2019-05-13T05:34:29.130Z,70.22
2019-05-13T05:37:56.621Z,70.47
2019-05-13T05:41:06.328Z,69.78
2019-05-13T05:44:16.044Z,69.06
2019-05-13T05:47:05.125Z,68.38
2019-05-13T05:50:14.809Z,68.39
2019-05-13T05:53:24.560Z,68.33
2019-05-13T05:56:34.296Z,67.66
2019-05-13T05:59:44.015Z,67.04
2019-05-13T06:02:25.665Z,66.40
2019-05-13T06:05:14.459Z,66.89
2019-05-13T06:08:03.389Z,66.45
2019-05-13T06:10:53.770Z,66.13
2019-05-13T06:13:42.864Z,66.21
2019-05-13T06:16:32.157Z,67.13
2019-05-13T06:19:22.640Z,67.14
2019-05-13T06:22:12.772Z,67.80
2019-05-13T06:27:55.640Z,68.77
2019-05-13T06:30:44.455Z,68.83
2019-05-13T06:33:33.594Z,68.76
2019-05-13T06:36:22.466Z,68.76
2019-05-13T06:39:12.302Z,68.07
2019-05-13T06:42:02.666Z,67.38
2019-05-13T06:44:52.367Z,66.30
2019-05-13T06:47:41.350Z,66.01
2019-05-13T06:50:32.343Z,65.07
2019-05-13T06:53:22.189Z,66.31
2019-05-13T06:56:12.149Z,66.80
2019-05-13T06:59:01.691Z,67.52
2019-05-13T07:01:44.616Z,67.73
2019-05-13T07:04:33.410Z,67.93
2019-05-13T07:07:22.190Z,67.20
2019-05-13T07:10:12.716Z,66.93
2019-05-13T07:13:02.264Z,66.50
2019-05-13T07:15:52.320Z,65.99
2019-05-13T07:18:42.576Z,65.74
2019-05-13T07:21:32.292Z,65.13
2019-05-13T07:24:21.870Z,63.91
2019-05-13T07:27:12.230Z,63.35
2019-05-13T07:30:02.164Z,63.97
2019-05-13T07:32:52.372Z,62.86
2019-05-13T07:35:45.048Z,62.45
2019-05-13T07:38:33.167Z,63.24
2019-05-13T07:41:35.281Z,61.42
2019-05-13T07:44:12.479Z,62.40
2019-05-13T07:47:03.378Z,62.10
2019-05-13T07:49:51.800Z,61.31
2019-05-13T07:52:42.105Z,61.88
2019-05-13T07:55:31.621Z,62.08
2019-05-13T07:58:22.908Z,61.25
2019-05-13T08:01:12.512Z,60.39
2019-05-13T08:03:53.662Z,58.63
2019-05-13T08:06:42.459Z,57.90
2019-05-13T08:09:32.205Z,57.49
2019-05-13T08:12:21.764Z,57.72
2019-05-13T08:15:11.962Z,57.36
2019-05-13T08:18:02.151Z,57.03
2019-05-13T08:20:52.559Z,56.70
2019-05-13T08:23:42.351Z,55.31
2019-05-13T08:26:32.279Z,56.42
2019-05-13T08:29:21.783Z,56.11
2019-05-13T08:32:11.360Z,56.06
2019-05-13T08:35:08.618Z,55.54
2019-05-13T08:37:52.209Z,55.10
2019-05-13T08:40:42.708Z,54.43
2019-05-13T08:43:33.332Z,54.23
2019-05-13T08:46:22.141Z,55.00
2019-05-13T08:49:11.879Z,54.60
2019-05-13T08:52:01.964Z,53.28
2019-05-13T08:54:52.562Z,53.63
2019-05-13T08:57:42.554Z,51.38
2019-05-13T09:00:52.958Z,51.32
2019-05-13T09:03:34.587Z,50.68
2019-05-13T09:06:23.387Z,49.29
2019-05-13T09:09:12.243Z,49.81
2019-05-13T09:12:02.562Z,50.86
2019-05-13T09:14:52.412Z,49.28
2019-05-13T09:18:02.308Z,49.82
2019-05-13T09:20:52.218Z,47.53
2019-05-13T09:23:42.340Z,47.64
2019-05-13T09:29:44.493Z,47.94
2019-05-13T09:32:33.297Z,47.70
2019-05-13T09:35:22.254Z,46.10
2019-05-13T09:38:12.873Z,46.52
2019-05-13T09:41:03.199Z,46.14
2019-05-13T09:43:32.657Z,47.13
2019-05-13T09:46:02.793Z,45.60
2019-05-13T09:48:32.334Z,46.93
2019-05-13T09:51:02.587Z,45.54
2019-05-13T09:53:32.741Z,43.79
2019-05-13T09:56:02.627Z,43.31
2019-05-13T09:58:33.155Z,41.55
2019-05-13T10:01:02.752Z,42.51
2019-05-13T10:03:33.273Z,43.26
2019-05-13T10:06:02.921Z,42.78
2019-05-13T10:11:03.558Z,44.62
2019-05-13T10:13:33.010Z,42.23
2019-05-13T10:16:02.482Z,43.02
2019-05-13T10:18:32.776Z,44.34
2019-05-13T10:21:04.115Z,42.91
2019-05-13T10:23:33.659Z,44.63
2019-05-13T10:26:07.241Z,44.51
2019-05-13T10:28:37.145Z,45.34
2019-05-13T10:31:07.102Z,46.44
2019-05-13T10:33:36.703Z,43.87
2019-05-13T10:36:06.626Z,42.01
2019-05-13T10:38:36.077Z,43.11
2019-05-13T10:41:05.679Z,43.05
2019-05-13T10:43:40.083Z,42.60
2019-05-13T10:46:06.372Z,43.66
2019-05-13T10:48:35.840Z,44.38
2019-05-13T10:51:05.521Z,43.12
2019-05-13T10:53:34.989Z,44.20
2019-05-13T10:56:04.615Z,41.24
2019-05-13T10:58:34.060Z,39.64
2019-05-13T11:01:03.877Z,36.91
2019-05-13T11:03:33.422Z,36.98
2019-05-13T11:06:03.174Z,35.52
2019-05-13T11:08:33.358Z,36.41
2019-05-13T11:11:03.360Z,34.73
2019-05-13T11:13:50.462Z,36.16
2019-05-13T11:16:04.398Z,35.59
2019-05-13T11:18:33.845Z,34.49
2019-05-13T11:21:03.350Z,35.37
2019-05-13T11:23:32.814Z,34.33
2019-05-13T11:26:03.031Z,34.26
2019-05-13T11:28:33.321Z,35.02
2019-05-13T11:31:03.544Z,35.26
2019-05-13T11:33:33.102Z,35.60
2019-05-13T11:36:03.468Z,35.81
2019-05-13T11:38:33.255Z,37.58
2019-05-13T11:41:03.253Z,35.42
2019-05-13T11:43:33.768Z,37.04
2019-05-13T11:46:03.586Z,37.31
2019-05-13T11:48:33.042Z,38.42
2019-05-13T11:51:03.922Z,36.80
2019-05-13T11:53:37.125Z,36.64
2019-05-13T11:56:05.256Z,37.07
2019-05-13T11:58:34.692Z,37.90
2019-05-13T12:01:04.927Z,37.70
2019-05-13T12:03:34.365Z,39.37
2019-05-13T12:06:03.981Z,38.07
2019-05-13T12:08:34.437Z,37.73
2019-05-13T12:11:06.665Z,37.83
2019-05-13T12:13:35.394Z,39.33
2019-05-13T12:16:04.911Z,38.36
2019-05-13T12:18:34.379Z,38.67
2019-05-13T12:21:04.393Z,38.70
2019-05-13T12:23:33.871Z,39.18
2019-05-13T12:26:04.161Z,38.42
2019-05-13T12:28:34.553Z,38.63
2019-05-13T12:31:04.064Z,38.10
2019-05-13T12:33:33.527Z,38.59
2019-05-13T12:36:03.056Z,38.29
2019-05-13T12:38:33.559Z,37.36
2019-05-13T12:43:34.526Z,38.45
2019-05-13T12:46:04.151Z,39.15
2019-05-13T12:48:33.596Z,37.40
2019-05-13T12:51:03.357Z,38.10
2019-05-13T12:53:32.915Z,36.55
2019-05-13T12:56:03.447Z,37.28
2019-05-13T12:58:34.267Z,37.36
2019-05-13T13:01:03.814Z,37.95
2019-05-13T13:03:33.283Z,37.71
2019-05-13T13:06:25.033Z,38.16
2019-05-13T13:08:43.783Z,36.12
2019-05-13T13:11:05.605Z,35.86
2019-05-13T13:13:56.800Z,34.89
2019-05-13T13:16:06.517Z,35.15
2019-05-13T13:18:36.494Z,35.50
2019-05-13T13:21:07.902Z,34.21
2019-05-13T13:23:37.344Z,34.21
2019-05-13T13:26:15.233Z,34.07
2019-05-13T13:28:38.058Z,32.94
2019-05-13T13:31:07.482Z,32.36
2019-05-13T13:33:36.927Z,33.24
2019-05-13T13:36:06.924Z,33.23
2019-05-13T13:38:36.536Z,31.88
2019-05-13T13:41:06.122Z,31.45
2019-05-13T13:43:37.377Z,28.75
2019-05-13T13:46:13.625Z,27.46
2019-05-13T13:48:37.934Z,28.30
2019-05-13T13:51:07.576Z,27.32
2019-05-13T13:53:37.035Z,29.04
2019-05-13T13:56:06.473Z,28.32
2019-05-13T13:58:35.940Z,26.76
2019-05-13T14:01:12.479Z,26.21
2019-05-13T14:03:36.722Z,26.71
2019-05-13T14:06:06.751Z,26.82
2019-05-13T14:06:25.465Z,43.66
2019-05-13T14:06:33.068Z,37.32
2019-05-13T14:08:36.316Z,27.62
2019-05-13T14:11:05.775Z,26.80
2019-05-13T14:13:35.371Z,26.28
2019-05-13T14:16:04.884Z,25.39
2019-05-13T14:18:34.355Z,25.57
2019-05-13T14:21:03.800Z,26.23
2019-05-13T14:23:33.263Z,25.69
2019-05-13T14:26:02.708Z,25.57
2019-05-13T14:28:32.879Z,25.08
2019-05-13T14:31:02.363Z,25.45
2019-05-13T14:33:35.184Z,25.40
2019-05-13T14:36:03.152Z,24.69
2019-05-13T14:38:32.963Z,23.49
2019-05-13T14:41:03.477Z,24.84
2019-05-13T14:43:33.081Z,25.21
2019-05-13T14:46:02.900Z,25.32
2019-05-13T14:48:33.036Z,25.21
2019-05-13T14:51:02.772Z,26.00
2019-05-13T14:53:32.577Z,24.72
2019-05-13T14:56:03.321Z,24.49
2019-05-13T14:58:33.098Z,24.43
2019-05-13T15:01:15.803Z,24.36
2019-05-13T15:03:33.817Z,23.33
2019-05-13T15:06:03.538Z,24.02
2019-05-13T15:08:33.248Z,24.44
2019-05-13T15:11:02.787Z,24.58
2019-05-13T15:13:32.456Z,24.79
2019-05-13T15:16:02.092Z,24.55
2019-05-13T15:18:32.997Z,24.83
2019-05-13T15:21:02.796Z,23.10
2019-05-13T15:23:32.251Z,23.41
2019-05-13T15:26:02.362Z,23.44
2019-05-13T15:28:32.138Z,24.24
2019-05-13T15:31:01.699Z,23.58
2019-05-13T15:33:32.682Z,23.85
2019-05-13T15:36:02.522Z,23.96
2019-05-13T15:38:32.816Z,24.03
2019-05-13T15:41:02.279Z,24.61
2019-05-13T15:43:32.113Z,23.89
2019-05-13T15:46:02.063Z,23.28
2019-05-13T15:48:31.847Z,22.87
2019-05-13T15:51:05.206Z,23.00
2019-05-13T15:53:32.714Z,22.75
2019-05-13T15:56:02.777Z,23.30
2019-05-13T15:58:39.291Z,23.45
2019-05-13T16:01:03.545Z,23.72
2019-05-13T16:03:33.045Z,23.53
2019-05-13T16:06:02.451Z,23.94
2019-05-13T16:08:32.137Z,24.59
2019-05-13T16:11:02.381Z,24.88
2019-05-13T16:13:32.202Z,25.39
2019-05-13T16:16:01.935Z,24.97
2019-05-13T16:18:31.788Z,24.58
2019-05-13T16:21:01.985Z,24.33
2019-05-13T16:23:44.296Z,25.05
2019-05-13T16:26:02.662Z,24.16
2019-05-13T16:28:32.983Z,23.36
2019-05-13T16:31:02.675Z,23.51
2019-05-13T16:33:32.350Z,22.90
2019-05-13T16:36:02.796Z,22.23
2019-05-13T16:38:33.034Z,22.96
2019-05-13T16:41:02.774Z,23.32
2019-05-13T16:43:32.489Z,23.73
2019-05-13T16:46:01.945Z,23.69
2019-05-13T16:48:32.299Z,23.08
2019-05-13T16:51:02.055Z,23.17
2019-05-13T16:53:31.791Z,22.50
2019-05-13T16:56:01.878Z,22.65
2019-05-13T16:58:32.494Z,22.22
2019-05-13T17:01:02.694Z,22.11
2019-05-13T17:03:32.323Z,22.83
2019-05-13T17:06:02.349Z,23.61
2019-05-13T17:08:32.215Z,23.15
2019-05-13T17:11:02.372Z,22.89
2019-05-13T17:13:31.859Z,23.36
2019-05-13T17:16:01.778Z,23.01
2019-05-13T17:18:32.340Z,22.94
2019-05-13T17:21:02.157Z,23.14
2019-05-13T17:23:31.678Z,23.42
2019-05-13T17:26:02.567Z,23.52
2019-05-13T17:28:34.230Z,22.96
2019-05-13T17:31:03.499Z,23.18
2019-05-13T17:33:32.941Z,23.54
2019-05-13T17:36:02.386Z,22.79
2019-05-13T17:38:32.580Z,23.69
2019-05-13T17:41:02.634Z,24.06
2019-05-13T17:43:32.320Z,24.38
2019-05-13T17:46:02.401Z,24.52
2019-05-13T17:48:32.922Z,23.91
2019-05-13T17:51:02.701Z,23.87
2019-05-13T17:53:32.654Z,23.29
2019-05-13T17:56:02.727Z,23.45
2019-05-13T17:58:32.182Z,24.13
2019-05-13T18:01:02.015Z,24.54
2019-05-13T18:03:32.178Z,25.59
2019-05-13T18:06:02.463Z,28.22
2019-05-13T18:08:32.347Z,28.93
2019-05-13T18:11:02.730Z,30.35
2019-05-13T18:13:32.719Z,31.13
2019-05-13T18:16:02.853Z,32.38
2019-05-13T18:18:43.276Z,32.52
2019-05-13T18:21:04.089Z,33.25
2019-05-13T18:23:33.786Z,33.88
2019-05-13T18:26:03.223Z,34.32
2019-05-13T18:28:32.685Z,35.00
2019-05-13T18:31:02.142Z,35.20
2019-05-13T18:33:32.191Z,35.55
2019-05-13T18:36:02.146Z,35.86
2019-05-13T18:38:33.344Z,36.69
2019-05-13T18:41:02.799Z,37.05
2019-05-13T18:43:32.307Z,38.23
2019-05-13T18:46:02.291Z,37.99
2019-05-13T18:48:32.374Z,37.96
2019-05-13T18:51:01.878Z,38.84
2019-05-13T18:53:32.175Z,38.69
2019-05-13T18:56:02.168Z,39.12
2019-05-13T18:58:31.952Z,39.32
2019-05-13T19:01:01.633Z,39.88
2019-05-13T19:03:32.229Z,40.53
2019-05-13T19:06:01.911Z,41.37
2019-05-13T19:08:32.087Z,41.12
2019-05-13T19:11:01.697Z,41.14
2019-05-13T19:13:32.306Z,41.78
2019-05-13T19:16:02.601Z,42.42
2019-05-13T19:18:32.375Z,42.42
2019-05-13T19:21:02.141Z,42.84
2019-05-13T19:23:31.721Z,43.18
2019-05-13T19:26:01.924Z,43.22
2019-05-13T19:28:31.879Z,43.89
2019-05-13T19:31:02.195Z,45.04
2019-05-13T19:33:31.911Z,45.42
2019-05-13T19:36:01.724Z,46.40
2019-05-13T19:38:32.100Z,47.21
2019-05-13T19:41:02.089Z,48.14
2019-05-13T19:43:31.734Z,49.15
2019-05-13T19:46:01.712Z,49.81
2019-05-13T19:48:32.575Z,49.55
2019-05-13T19:51:02.316Z,50.14
2019-05-13T19:53:32.120Z,50.14
2019-05-13T19:56:01.723Z,50.79
2019-05-13T19:58:32.350Z,50.46
2019-05-13T20:01:02.026Z,51.91
2019-05-13T20:03:31.957Z,52.22
2019-05-13T20:06:02.219Z,51.94
2019-05-13T20:08:32.282Z,52.56
2019-05-13T20:11:02.178Z,53.13
2019-05-13T20:13:31.795Z,52.40
2019-05-13T20:16:01.677Z,54.61
2019-05-13T20:18:31.968Z,54.53
2019-05-13T20:21:01.704Z,55.18
2019-05-13T20:23:32.106Z,54.49
2019-05-13T20:26:01.670Z,55.41
2019-05-13T20:28:31.808Z,54.42
2019-05-13T20:31:01.888Z,54.26
2019-05-13T20:33:32.200Z,53.78
2019-05-13T20:36:02.100Z,53.53
2019-05-13T20:38:31.879Z,52.95
2019-05-13T20:41:01.580Z,52.63
2019-05-13T20:43:32.850Z,51.88
2019-05-13T20:46:02.493Z,51.49
2019-05-13T20:48:32.226Z,51.84
2019-05-13T20:51:02.531Z,51.54
2019-05-13T20:53:32.232Z,51.70
2019-05-13T20:56:01.992Z,51.43
2019-05-13T20:58:31.963Z,51.23
2019-05-13T21:01:02.253Z,51.46
2019-05-13T21:03:32.028Z,51.91
2019-05-13T21:06:01.473Z,52.16
2019-05-13T21:08:32.146Z,52.12
2019-05-13T21:11:02.464Z,51.83
2019-05-13T21:13:32.086Z,52.35
2019-05-13T21:16:02.314Z,52.37
2019-05-13T21:18:31.937Z,52.68
2019-05-13T21:21:01.529Z,52.98
2019-05-13T21:23:31.378Z,52.90
2019-05-13T21:26:01.556Z,52.92
2019-05-13T21:28:31.228Z,52.91
2019-05-13T21:31:02.116Z,52.79
2019-05-13T21:33:31.785Z,52.93
2019-05-13T21:36:01.718Z,53.16
2019-05-13T21:38:32.503Z,53.30
2019-05-13T21:41:01.994Z,53.39
2019-05-13T21:43:32.399Z,53.77
2019-05-13T21:46:02.267Z,53.51
2019-05-13T21:48:32.429Z,53.78
2019-05-13T21:51:02.194Z,53.76
2019-05-13T21:53:32.562Z,53.83
2019-05-13T21:56:02.578Z,53.86
2019-05-13T21:58:32.087Z,54.21
2019-05-13T22:01:02.048Z,54.48
2019-05-13T22:03:33.494Z,54.72
2019-05-13T22:06:02.787Z,54.52
2019-05-13T22:08:32.311Z,54.77
2019-05-13T22:11:02.037Z,54.87
2019-05-13T22:13:31.787Z,54.94
2019-05-13T22:16:01.842Z,55.23
2019-05-13T22:18:31.694Z,55.61
2019-05-13T22:21:01.632Z,55.61
2019-05-13T22:23:32.111Z,55.59
2019-05-13T22:26:02.049Z,55.74
2019-05-13T22:28:31.612Z,55.98
2019-05-13T22:31:01.590Z,55.84
2019-05-13T22:33:32.437Z,55.95
2019-05-13T22:36:02.179Z,56.04
2019-05-13T22:38:32.372Z,56.10
2019-05-13T22:41:02.159Z,56.48
2019-05-13T22:43:32.241Z,56.63
2019-05-13T22:46:01.721Z,56.74
2019-05-13T22:48:31.896Z,57.06
2019-05-13T22:51:01.579Z,57.72
2019-05-13T22:53:31.853Z,58.27
2019-05-13T22:56:01.582Z,58.72
2019-05-13T22:58:32.112Z,59.09
2019-05-13T23:01:02.473Z,59.48
2019-05-13T23:03:32.571Z,59.43
2019-05-13T23:06:02.016Z,59.87
2019-05-13T23:08:32.480Z,60.36
2019-05-13T23:11:02.292Z,61.13
2019-05-13T23:13:31.908Z,61.28
2019-05-13T23:16:02.422Z,61.89
2019-05-13T23:18:32.091Z,61.38
2019-05-13T23:21:02.316Z,61.20
2019-05-13T23:23:32.015Z,61.04
2019-05-13T23:26:01.448Z,61.13
2019-05-13T23:28:32.236Z,61.33
2019-05-13T23:31:01.941Z,61.46
2019-05-13T23:33:31.599Z,61.32
2019-05-13T23:36:01.675Z,61.46
2019-05-13T23:38:31.922Z,61.48
2019-05-13T23:41:02.095Z,61.30
2019-05-13T23:43:31.861Z,61.28
2019-05-13T23:46:01.624Z,61.35
2019-05-13T23:48:32.108Z,61.53
2019-05-13T23:51:01.683Z,61.06
2019-05-13T23:53:31.643Z,61.35
2019-05-13T23:56:02.086Z,61.02
2019-05-13T23:58:32.102Z,61.32
